Метеостанция


АнтоновUKKM 291300Z 22004MPS 180V260 CAVOK 32/17 Q1007 R15/CLRD70 NOSIG=
БориспольUKBB 291300Z 23004MPS 210V270 9999 FEW050TCU 33/17 Q1007 R88/CLRD// NOSIG
Гаврышовка (Винница)UKWW 291300Z 28003MPS 240V360 9999 NSC 30/17 Q1009 R31/0///65 NOSIG=
ДнепропетровскUKDD 291300Z 08007MPS 1600 TSRA BKN033CB 22/19 Q1012 R08/210356 TEMPO VRB12G18MPS 0700 +TSRAGR SQ BKN005 BKN020CB
ЖуляныUKKK 291300Z 26004MPS 200V290 CAVOK 31/18 Q1007 R26/150060 NOSIG=
Запорожье(Мокрая)UKDE 291300Z 26006MPS 9999 TS SCT///CB 27/18 Q1011 R20/090070 TEMPO VRB10G15MPS 0700 +TSRAGR SQ BKN006 BKN020CB
Ивано-ФранковскUKLI 291300Z 24001MPS 9999 VCTS SCT026CB BKN036 22/21 Q1013 R28/290065 NOSIG=
Кривой РогUKDR 291300Z 27007MPS 240V300 CAVOK 35/15 Q1008 R18/09//70 TEMPO -TSRA BKN013CB
ЛьвовUKLL 291300Z 28005MPS 230V300 9999 FEW030CB BKN030 26/18 Q1013 R31/CLRD// NOSIG
НиколаевUKON 291300Z 23007MPS 190V270 CAVOK 33/17 Q1009 NOSIG=
ОдессаUKOO 291300Z 17006MPS CAVOK 32/20 Q1010 R16/090095 NOSIG
РовноUKLR 291300Z 30007MPS 9999 SCT///CB 26/18 Q1011 R29/190060 NOSIG=
УжгородUKLU 291300Z 28002MPS 220V330 9999 SCT047 29/18 Q1012 R10/090070 NOSIG=
ХарьковUKHH 291300Z 34003MPS 320V020 9999 VCTS SCT///CB 29/16 Q1008 R25/0///81 NOSIG
ЧерновцыUKLN 291253Z 27016G24MPS 210V320 1200 0650NW R33/P2000N +TSRA BKN029CB 20/17 Q1012 TEMPO 1100 TSRAGR BKN003 BKN020CB
Скачать:
Скачать этот файл (Metar_шпаргалка.jpg)Расшифровка METAR[ ]4799 Кб
Вся информация, которая имеется в использовании на сайте и доступная для скачивания, получена исключительно из открытых источников информации сети Интернет, всякое совпадение с данными, имеющими ограничения в доступе, случайное и не является преднамеренным.
^ Наверх